sensor_id;sensor_type;location;lat;lon;timestamp;pressure;altitude;pressure_sealevel;temperature
29423;BMP180;16399;51.686;8.684;2023-08-08T00:02:55;99697.00;;;13.60
29423;BMP180;16399;51.686;8.684;2023-08-08T00:05:58;99688.00;;;13.60
29423;BMP180;16399;51.686;8.684;2023-08-08T00:09:00;99682.00;;;13.60
29423;BMP180;16399;51.686;8.684;2023-08-08T00:12:02;99685.00;;;13.60
29423;BMP180;16399;51.686;8.684;2023-08-08T00:15:05;99681.00;;;13.60
29423;BMP180;16399;51.686;8.684;2023-08-08T00:18:08;99668.00;;;13.70
29423;BMP180;16399;51.686;8.684;2023-08-08T00:21:10;99661.00;;;13.70
29423;BMP180;16399;51.686;8.684;2023-08-08T00:24:12;99667.00;;;13.70
29423;BMP180;16399;51.686;8.684;2023-08-08T00:27:14;99657.00;;;13.80
29423;BMP180;16399;51.686;8.684;2023-08-08T00:30:17;99662.00;;;13.80
29423;BMP180;16399;51.686;8.684;2023-08-08T00:33:19;99657.00;;;13.80
29423;BMP180;16399;51.686;8.684;2023-08-08T00:36:22;99652.00;;;13.80
29423;BMP180;16399;51.686;8.684;2023-08-08T00:39:24;99643.00;;;13.80
29423;BMP180;16399;51.686;8.684;2023-08-08T00:42:26;99639.00;;;13.80
29423;BMP180;16399;51.686;8.684;2023-08-08T00:45:28;99639.00;;;13.80
29423;BMP180;16399;51.686;8.684;2023-08-08T00:48:31;99629.00;;;13.90
29423;BMP180;16399;51.686;8.684;2023-08-08T00:51:34;99636.00;;;13.90
29423;BMP180;16399;51.686;8.684;2023-08-08T00:54:37;99630.00;;;13.90
29423;BMP180;16399;51.686;8.684;2023-08-08T00:57:40;99638.00;;;13.90
29423;BMP180;16399;51.686;8.684;2023-08-08T01:00:43;99626.00;;;14.00
29423;BMP180;16399;51.686;8.684;2023-08-08T01:03:45;99627.00;;;14.00
29423;BMP180;16399;51.686;8.684;2023-08-08T01:07:01;99625.00;;;14.00
29423;BMP180;16399;51.686;8.684;2023-08-08T01:10:26;99625.00;;;14.00
29423;BMP180;16399;51.686;8.684;2023-08-08T01:13:30;99630.00;;;14.10
29423;BMP180;16399;51.686;8.684;2023-08-08T01:16:33;99625.00;;;14.10
29423;BMP180;16399;51.686;8.684;2023-08-08T01:19:35;99626.00;;;14.10
29423;BMP180;16399;51.686;8.684;2023-08-08T01:22:43;99625.00;;;14.10
29423;BMP180;16399;51.686;8.684;2023-08-08T01:25:44;99631.00;;;14.20
29423;BMP180;16399;51.686;8.684;2023-08-08T01:28:48;99637.00;;;14.20
29423;BMP180;16399;51.686;8.684;2023-08-08T01:31:50;99625.00;;;14.10
29423;BMP180;16399;51.686;8.684;2023-08-08T01:34:52;99624.00;;;14.10
29423;BMP180;16399;51.686;8.684;2023-08-08T01:37:59;99620.00;;;14.10
29423;BMP180;16399;51.686;8.684;2023-08-08T01:41:00;99606.00;;;14.00
29423;BMP180;16399;51.686;8.684;2023-08-08T01:44:04;99627.00;;;13.90
29423;BMP180;16399;51.686;8.684;2023-08-08T01:47:08;99635.00;;;13.80
29423;BMP180;16399;51.686;8.684;2023-08-08T01:50:10;99622.00;;;13.70
29423;BMP180;16399;51.686;8.684;2023-08-08T01:53:13;99640.00;;;13.60
29423;BMP180;16399;51.686;8.684;2023-08-08T01:56:15;99622.00;;;13.50
29423;BMP180;16399;51.686;8.684;2023-08-08T01:59:17;99636.00;;;13.50
29423;BMP180;16399;51.686;8.684;2023-08-08T02:02:19;99640.00;;;13.30
29423;BMP180;16399;51.686;8.684;2023-08-08T02:05:22;99644.00;;;13.20
29423;BMP180;16399;51.686;8.684;2023-08-08T02:08:24;99642.00;;;13.20
29423;BMP180;16399;51.686;8.684;2023-08-08T02:11:26;99637.00;;;13.10
29423;BMP180;16399;51.686;8.684;2023-08-08T02:14:29;99640.00;;;13.00
29423;BMP180;16399;51.686;8.684;2023-08-08T02:17:31;99634.00;;;12.90
29423;BMP180;16399;51.686;8.684;2023-08-08T02:20:33;99635.00;;;12.90
29423;BMP180;16399;51.686;8.684;2023-08-08T02:23:36;99627.00;;;12.80
29423;BMP180;16399;51.686;8.684;2023-08-08T02:26:38;99625.00;;;12.70
29423;BMP180;16399;51.686;8.684;2023-08-08T02:29:40;99631.00;;;12.60
29423;BMP180;16399;51.686;8.684;2023-08-08T02:32:43;99626.00;;;12.60
29423;BMP180;16399;51.686;8.684;2023-08-08T02:35:45;99623.00;;;12.50
29423;BMP180;16399;51.686;8.684;2023-08-08T02:38:47;99622.00;;;12.40
29423;BMP180;16399;51.686;8.684;2023-08-08T02:41:51;99617.00;;;12.30
29423;BMP180;16399;51.686;8.684;2023-08-08T02:44:53;99608.00;;;12.30
29423;BMP180;16399;51.686;8.684;2023-08-08T02:47:55;99604.00;;;12.30
29423;BMP180;16399;51.686;8.684;2023-08-08T02:50:57;99593.00;;;12.30
29423;BMP180;16399;51.686;8.684;2023-08-08T02:54:00;99600.00;;;12.30
29423;BMP180;16399;51.686;8.684;2023-08-08T02:57:02;99577.00;;;12.20
29423;BMP180;16399;51.686;8.684;2023-08-08T03:00:05;99581.00;;;12.20
29423;BMP180;16399;51.686;8.684;2023-08-08T03:03:09;99590.00;;;12.20
29423;BMP180;16399;51.686;8.684;2023-08-08T03:06:11;99592.00;;;12.20
29423;BMP180;16399;51.686;8.684;2023-08-08T03:09:13;99583.00;;;12.20
29423;BMP180;16399;51.686;8.684;2023-08-08T03:12:16;99587.00;;;12.10
29423;BMP180;16399;51.686;8.684;2023-08-08T03:15:18;99573.00;;;12.10
29423;BMP180;16399;51.686;8.684;2023-08-08T03:18:20;99578.00;;;12.10
29423;BMP180;16399;51.686;8.684;2023-08-08T03:21:24;99570.00;;;12.10
29423;BMP180;16399;51.686;8.684;2023-08-08T03:24:26;99568.00;;;12.10
29423;BMP180;16399;51.686;8.684;2023-08-08T03:27:28;99557.00;;;12.10
29423;BMP180;16399;51.686;8.684;2023-08-08T03:30:31;99540.00;;;12.00
29423;BMP180;16399;51.686;8.684;2023-08-08T03:33:33;99546.00;;;12.00
29423;BMP180;16399;51.686;8.684;2023-08-08T03:36:35;99545.00;;;12.00
29423;BMP180;16399;51.686;8.684;2023-08-08T03:39:37;99528.00;;;12.00
29423;BMP180;16399;51.686;8.684;2023-08-08T03:42:40;99532.00;;;12.10
29423;BMP180;16399;51.686;8.684;2023-08-08T03:45:42;99525.00;;;12.10
29423;BMP180;16399;51.686;8.684;2023-08-08T03:48:46;99525.00;;;12.10
29423;BMP180;16399;51.686;8.684;2023-08-08T03:51:48;99533.00;;;12.10
29423;BMP180;16399;51.686;8.684;2023-08-08T03:54:51;99533.00;;;12.20
29423;BMP180;16399;51.686;8.684;2023-08-08T03:57:54;99544.00;;;12.20
29423;BMP180;16399;51.686;8.684;2023-08-08T04:00:56;99520.00;;;12.30
29423;BMP180;16399;51.686;8.684;2023-08-08T04:03:58;99520.00;;;12.30
29423;BMP180;16399;51.686;8.684;2023-08-08T04:07:01;99516.00;;;12.40
29423;BMP180;16399;51.686;8.684;2023-08-08T04:10:03;99516.00;;;12.40
29423;BMP180;16399;51.686;8.684;2023-08-08T04:13:05;99512.00;;;12.50
29423;BMP180;16399;51.686;8.684;2023-08-08T04:16:08;99522.00;;;12.50
29423;BMP180;16399;51.686;8.684;2023-08-08T04:19:10;99516.00;;;12.60
29423;BMP180;16399;51.686;8.684;2023-08-08T04:22:12;99514.00;;;12.60
29423;BMP180;16399;51.686;8.684;2023-08-08T04:25:16;99518.00;;;12.70
29423;BMP180;16399;51.686;8.684;2023-08-08T04:28:19;99523.00;;;12.70
29423;BMP180;16399;51.686;8.684;2023-08-08T04:31:21;99522.00;;;12.70
29423;BMP180;16399;51.686;8.684;2023-08-08T04:34:25;99524.00;;;12.70
29423;BMP180;16399;51.686;8.684;2023-08-08T04:37:27;99536.00;;;12.80
29423;BMP180;16399;51.686;8.684;2023-08-08T04:40:30;99549.00;;;12.80
29423;BMP180;16399;51.686;8.684;2023-08-08T04:43:32;99526.00;;;12.80
29423;BMP180;16399;51.686;8.684;2023-08-08T04:46:34;99538.00;;;12.90
29423;BMP180;16399;51.686;8.684;2023-08-08T04:49:37;99531.00;;;13.00
29423;BMP180;16399;51.686;8.684;2023-08-08T04:52:39;99530.00;;;13.00
29423;BMP180;16399;51.686;8.684;2023-08-08T04:55:41;99533.00;;;13.10
29423;BMP180;16399;51.686;8.684;2023-08-08T04:58:43;99527.00;;;13.10
29423;BMP180;16399;51.686;8.684;2023-08-08T05:01:46;99529.00;;;13.10
29423;BMP180;16399;51.686;8.684;2023-08-08T05:04:48;99529.00;;;13.10
29423;BMP180;16399;51.686;8.684;2023-08-08T05:07:51;99521.00;;;13.10
29423;BMP180;16399;51.686;8.684;2023-08-08T05:10:53;99517.00;;;13.10
29423;BMP180;16399;51.686;8.684;2023-08-08T05:13:55;99529.00;;;13.10
29423;BMP180;16399;51.686;8.684;2023-08-08T05:16:58;99521.00;;;13.10
29423;BMP180;16399;51.686;8.684;2023-08-08T05:20:00;99513.00;;;13.20
29423;BMP180;16399;51.686;8.684;2023-08-08T05:23:03;99510.00;;;13.20
29423;BMP180;16399;51.686;8.684;2023-08-08T05:26:05;99511.00;;;13.20
29423;BMP180;16399;51.686;8.684;2023-08-08T05:29:07;99511.00;;;13.20
29423;BMP180;16399;51.686;8.684;2023-08-08T05:32:10;99509.00;;;13.30
29423;BMP180;16399;51.686;8.684;2023-08-08T05:35:12;99513.00;;;13.30
29423;BMP180;16399;51.686;8.684;2023-08-08T05:38:14;99512.00;;;13.30
29423;BMP180;16399;51.686;8.684;2023-08-08T05:41:17;99511.00;;;13.40
29423;BMP180;16399;51.686;8.684;2023-08-08T05:44:19;99506.00;;;13.40
29423;BMP180;16399;51.686;8.684;2023-08-08T05:47:21;99500.00;;;13.40
29423;BMP180;16399;51.686;8.684;2023-08-08T05:50:24;99511.00;;;13.50
29423;BMP180;16399;51.686;8.684;2023-08-08T05:53:26;99505.00;;;13.50
29423;BMP180;16399;51.686;8.684;2023-08-08T05:56:36;99501.00;;;13.60
29423;BMP180;16399;51.686;8.684;2023-08-08T05:59:38;99506.00;;;13.60
29423;BMP180;16399;51.686;8.684;2023-08-08T06:02:40;99506.00;;;13.70
29423;BMP180;16399;51.686;8.684;2023-08-08T06:05:43;99516.00;;;13.70
29423;BMP180;16399;51.686;8.684;2023-08-08T06:08:45;99507.00;;;13.70
29423;BMP180;16399;51.686;8.684;2023-08-08T06:11:48;99515.00;;;13.80
29423;BMP180;16399;51.686;8.684;2023-08-08T06:14:50;99521.00;;;13.80
29423;BMP180;16399;51.686;8.684;2023-08-08T06:17:52;99514.00;;;13.80
29423;BMP180;16399;51.686;8.684;2023-08-08T06:20:55;99509.00;;;13.80
29423;BMP180;16399;51.686;8.684;2023-08-08T06:23:58;99522.00;;;13.90
29423;BMP180;16399;51.686;8.684;2023-08-08T06:27:00;99515.00;;;13.90
29423;BMP180;16399;51.686;8.684;2023-08-08T06:30:02;99520.00;;;14.00
29423;BMP180;16399;51.686;8.684;2023-08-08T06:33:05;99531.00;;;14.00
29423;BMP180;16399;51.686;8.684;2023-08-08T06:36:07;99535.00;;;14.10
29423;BMP180;16399;51.686;8.684;2023-08-08T06:39:09;99531.00;;;14.00
29423;BMP180;16399;51.686;8.684;2023-08-08T06:42:12;99523.00;;;14.10
29423;BMP180;16399;51.686;8.684;2023-08-08T06:45:14;99533.00;;;14.10
29423;BMP180;16399;51.686;8.684;2023-08-08T06:48:17;99530.00;;;14.10
29423;BMP180;16399;51.686;8.684;2023-08-08T06:51:19;99538.00;;;14.20
29423;BMP180;16399;51.686;8.684;2023-08-08T06:54:21;99534.00;;;14.20
29423;BMP180;16399;51.686;8.684;2023-08-08T06:57:24;99533.00;;;14.30
29423;BMP180;16399;51.686;8.684;2023-08-08T07:00:26;99524.00;;;14.30
29423;BMP180;16399;51.686;8.684;2023-08-08T07:03:29;99520.00;;;14.40
29423;BMP180;16399;51.686;8.684;2023-08-08T07:06:31;99528.00;;;14.50
29423;BMP180;16399;51.686;8.684;2023-08-08T07:09:33;99521.00;;;14.60
29423;BMP180;16399;51.686;8.684;2023-08-08T07:12:36;99528.00;;;14.60
29423;BMP180;16399;51.686;8.684;2023-08-08T07:15:38;99517.00;;;14.70
29423;BMP180;16399;51.686;8.684;2023-08-08T07:18:40;99526.00;;;14.80
29423;BMP180;16399;51.686;8.684;2023-08-08T07:21:43;99533.00;;;14.90
29423;BMP180;16399;51.686;8.684;2023-08-08T07:24:45;99517.00;;;14.90
29423;BMP180;16399;51.686;8.684;2023-08-08T07:27:47;99520.00;;;14.90
29423;BMP180;16399;51.686;8.684;2023-08-08T07:30:49;99514.00;;;14.90
29423;BMP180;16399;51.686;8.684;2023-08-08T07:33:52;99507.00;;;14.90
29423;BMP180;16399;51.686;8.684;2023-08-08T07:36:54;99501.00;;;15.00
29423;BMP180;16399;51.686;8.684;2023-08-08T07:39:57;99500.00;;;15.10
29423;BMP180;16399;51.686;8.684;2023-08-08T07:42:59;99504.00;;;15.40
29423;BMP180;16399;51.686;8.684;2023-08-08T07:46:01;99503.00;;;15.50
29423;BMP180;16399;51.686;8.684;2023-08-08T07:49:04;99508.00;;;15.60
29423;BMP180;16399;51.686;8.684;2023-08-08T07:52:07;99506.00;;;15.50
29423;BMP180;16399;51.686;8.684;2023-08-08T07:55:10;99511.00;;;15.60
29423;BMP180;16399;51.686;8.684;2023-08-08T07:58:12;99501.00;;;15.60
29423;BMP180;16399;51.686;8.684;2023-08-08T08:01:14;99504.00;;;15.60
29423;BMP180;16399;51.686;8.684;2023-08-08T08:04:18;99500.00;;;15.60
29423;BMP180;16399;51.686;8.684;2023-08-08T08:07:20;99495.00;;;15.60
29423;BMP180;16399;51.686;8.684;2023-08-08T08:10:22;99505.00;;;15.50
29423;BMP180;16399;51.686;8.684;2023-08-08T08:13:24;99493.00;;;15.50
29423;BMP180;16399;51.686;8.684;2023-08-08T08:16:27;99502.00;;;15.60
29423;BMP180;16399;51.686;8.684;2023-08-08T08:19:29;99491.00;;;15.70
29423;BMP180;16399;51.686;8.684;2023-08-08T08:22:32;99480.00;;;15.90
29423;BMP180;16399;51.686;8.684;2023-08-08T08:25:34;99489.00;;;16.00
29423;BMP180;16399;51.686;8.684;2023-08-08T08:28:37;99485.00;;;16.20
29423;BMP180;16399;51.686;8.684;2023-08-08T08:31:41;99486.00;;;16.30
29423;BMP180;16399;51.686;8.684;2023-08-08T08:34:43;99496.00;;;16.40
29423;BMP180;16399;51.686;8.684;2023-08-08T08:37:45;99492.00;;;16.50
29423;BMP180;16399;51.686;8.684;2023-08-08T08:40:48;99480.00;;;16.60
29423;BMP180;16399;51.686;8.684;2023-08-08T08:43:50;99473.00;;;16.60
29423;BMP180;16399;51.686;8.684;2023-08-08T08:46:53;99463.00;;;16.60
29423;BMP180;16399;51.686;8.684;2023-08-08T08:49:57;99466.00;;;16.60
29423;BMP180;16399;51.686;8.684;2023-08-08T08:53:00;99474.00;;;16.70
29423;BMP180;16399;51.686;8.684;2023-08-08T08:56:03;99472.00;;;16.90
29423;BMP180;16399;51.686;8.684;2023-08-08T08:59:06;99463.00;;;16.90
29423;BMP180;16399;51.686;8.684;2023-08-08T09:02:09;99466.00;;;17.00
29423;BMP180;16399;51.686;8.684;2023-08-08T09:05:12;99470.00;;;17.20
29423;BMP180;16399;51.686;8.684;2023-08-08T09:08:15;99455.00;;;17.40
29423;BMP180;16399;51.686;8.684;2023-08-08T09:11:18;99447.00;;;17.60
29423;BMP180;16399;51.686;8.684;2023-08-08T09:14:22;99453.00;;;17.90
29423;BMP180;16399;51.686;8.684;2023-08-08T09:17:28;99439.00;;;18.10
29423;BMP180;16399;51.686;8.684;2023-08-08T09:20:30;99426.00;;;18.40
29423;BMP180;16399;51.686;8.684;2023-08-08T09:23:33;99427.00;;;18.60
29423;BMP180;16399;51.686;8.684;2023-08-08T09:26:35;99421.00;;;18.80
29423;BMP180;16399;51.686;8.684;2023-08-08T09:29:38;99417.00;;;19.10
29423;BMP180;16399;51.686;8.684;2023-08-08T09:32:43;99405.00;;;19.40
29423;BMP180;16399;51.686;8.684;2023-08-08T09:35:46;99407.00;;;19.70
29423;BMP180;16399;51.686;8.684;2023-08-08T09:38:48;99408.00;;;20.00
29423;BMP180;16399;51.686;8.684;2023-08-08T09:41:51;99410.00;;;19.90
29423;BMP180;16399;51.686;8.684;2023-08-08T09:44:53;99415.00;;;19.50
29423;BMP180;16399;51.686;8.684;2023-08-08T09:47:55;99419.00;;;19.20
29423;BMP180;16399;51.686;8.684;2023-08-08T09:50:59;99428.00;;;18.80
29423;BMP180;16399;51.686;8.684;2023-08-08T09:54:01;99415.00;;;18.70
29423;BMP180;16399;51.686;8.684;2023-08-08T09:57:06;99427.00;;;18.80
29423;BMP180;16399;51.686;8.684;2023-08-08T10:00:09;99426.00;;;19.00
29423;BMP180;16399;51.686;8.684;2023-08-08T10:03:14;99435.00;;;19.10
29423;BMP180;16399;51.686;8.684;2023-08-08T10:06:16;99444.00;;;19.30
29423;BMP180;16399;51.686;8.684;2023-08-08T10:09:19;99431.00;;;19.30
29423;BMP180;16399;51.686;8.684;2023-08-08T10:12:23;99450.00;;;19.20
29423;BMP180;16399;51.686;8.684;2023-08-08T10:15:27;99450.00;;;18.90
29423;BMP180;16399;51.686;8.684;2023-08-08T10:18:31;99463.00;;;18.40
29423;BMP180;16399;51.686;8.684;2023-08-08T10:21:42;99466.00;;;18.10
29423;BMP180;16399;51.686;8.684;2023-08-08T10:24:41;99473.00;;;17.80
29423;BMP180;16399;51.686;8.684;2023-08-08T10:27:43;99482.00;;;17.60
29423;BMP180;16399;51.686;8.684;2023-08-08T10:30:53;99482.00;;;17.40
29423;BMP180;16399;51.686;8.684;2023-08-08T10:34:06;99481.00;;;17.30
29423;BMP180;16399;51.686;8.684;2023-08-08T10:37:13;99488.00;;;17.20
29423;BMP180;16399;51.686;8.684;2023-08-08T10:40:17;99473.00;;;17.20
29423;BMP180;16399;51.686;8.684;2023-08-08T10:43:25;99480.00;;;17.40
29423;BMP180;16399;51.686;8.684;2023-08-08T10:46:28;99480.00;;;17.70
29423;BMP180;16399;51.686;8.684;2023-08-08T10:49:31;99480.00;;;17.90
29423;BMP180;16399;51.686;8.684;2023-08-08T10:52:38;99481.00;;;18.00
29423;BMP180;16399;51.686;8.684;2023-08-08T10:55:37;99478.00;;;17.90
29423;BMP180;16399;51.686;8.684;2023-08-08T10:58:42;99472.00;;;17.90
29423;BMP180;16399;51.686;8.684;2023-08-08T11:01:48;99467.00;;;18.00
29423;BMP180;16399;51.686;8.684;2023-08-08T11:04:52;99468.00;;;18.40
29423;BMP180;16399;51.686;8.684;2023-08-08T11:07:55;99475.00;;;18.50
29423;BMP180;16399;51.686;8.684;2023-08-08T11:10:57;99470.00;;;18.40
29423;BMP180;16399;51.686;8.684;2023-08-08T11:14:00;99483.00;;;18.30
29423;BMP180;16399;51.686;8.684;2023-08-08T11:17:04;99480.00;;;18.20
29423;BMP180;16399;51.686;8.684;2023-08-08T11:20:07;99470.00;;;18.10
29423;BMP180;16399;51.686;8.684;2023-08-08T11:23:10;99465.00;;;18.20
29423;BMP180;16399;51.686;8.684;2023-08-08T11:26:14;99468.00;;;18.50
29423;BMP180;16399;51.686;8.684;2023-08-08T11:29:17;99470.00;;;18.80
29423;BMP180;16399;51.686;8.684;2023-08-08T11:32:19;99467.00;;;19.10
29423;BMP180;16399;51.686;8.684;2023-08-08T11:35:23;99465.00;;;19.20
29423;BMP180;16399;51.686;8.684;2023-08-08T11:38:26;99472.00;;;19.10
29423;BMP180;16399;51.686;8.684;2023-08-08T11:41:28;99468.00;;;19.00
29423;BMP180;16399;51.686;8.684;2023-08-08T11:44:31;99468.00;;;18.90
29423;BMP180;16399;51.686;8.684;2023-08-08T11:47:33;99468.00;;;18.70
29423;BMP180;16399;51.686;8.684;2023-08-08T11:50:37;99472.00;;;18.50
29423;BMP180;16399;51.686;8.684;2023-08-08T11:53:51;99469.00;;;18.50
29423;BMP180;16399;51.686;8.684;2023-08-08T11:56:54;99468.00;;;18.50
29423;BMP180;16399;51.686;8.684;2023-08-08T11:59:57;99471.00;;;18.60
29423;BMP180;16399;51.686;8.684;2023-08-08T12:03:01;99470.00;;;18.50
29423;BMP180;16399;51.686;8.684;2023-08-08T12:06:15;99477.00;;;18.40
29423;BMP180;16399;51.686;8.684;2023-08-08T12:09:17;99476.00;;;18.40
29423;BMP180;16399;51.686;8.684;2023-08-08T12:12:20;99468.00;;;18.20
29423;BMP180;16399;51.686;8.684;2023-08-08T12:15:22;99471.00;;;18.10
29423;BMP180;16399;51.686;8.684;2023-08-08T12:18:24;99478.00;;;18.10
29423;BMP180;16399;51.686;8.684;2023-08-08T12:21:26;99462.00;;;18.20
29423;BMP180;16399;51.686;8.684;2023-08-08T12:24:29;99457.00;;;18.30
29423;BMP180;16399;51.686;8.684;2023-08-08T12:27:31;99463.00;;;18.30
29423;BMP180;16399;51.686;8.684;2023-08-08T12:30:33;99459.00;;;18.20
29423;BMP180;16399;51.686;8.684;2023-08-08T12:33:36;99467.00;;;18.20
29423;BMP180;16399;51.686;8.684;2023-08-08T12:36:38;99465.00;;;18.20
29423;BMP180;16399;51.686;8.684;2023-08-08T12:39:40;99463.00;;;18.20
29423;BMP180;16399;51.686;8.684;2023-08-08T12:42:43;99470.00;;;18.20
29423;BMP180;16399;51.686;8.684;2023-08-08T12:45:46;99465.00;;;18.30
29423;BMP180;16399;51.686;8.684;2023-08-08T12:48:49;99470.00;;;18.40
29423;BMP180;16399;51.686;8.684;2023-08-08T12:51:51;99472.00;;;18.50
29423;BMP180;16399;51.686;8.684;2023-08-08T12:54:55;99477.00;;;18.60
29423;BMP180;16399;51.686;8.684;2023-08-08T12:57:58;99463.00;;;18.70
29423;BMP180;16399;51.686;8.684;2023-08-08T13:01:00;99461.00;;;18.80
29423;BMP180;16399;51.686;8.684;2023-08-08T13:04:03;99450.00;;;18.90
29423;BMP180;16399;51.686;8.684;2023-08-08T13:07:05;99444.00;;;19.10
29423;BMP180;16399;51.686;8.684;2023-08-08T13:10:08;99451.00;;;19.20
29423;BMP180;16399;51.686;8.684;2023-08-08T13:13:11;99460.00;;;19.30
29423;BMP180;16399;51.686;8.684;2023-08-08T13:16:14;99455.00;;;19.30
29423;BMP180;16399;51.686;8.684;2023-08-08T13:19:16;99462.00;;;19.30
29423;BMP180;16399;51.686;8.684;2023-08-08T13:22:20;99446.00;;;19.40
29423;BMP180;16399;51.686;8.684;2023-08-08T13:25:23;99461.00;;;19.40
29423;BMP180;16399;51.686;8.684;2023-08-08T13:28:25;99453.00;;;19.40
29423;BMP180;16399;51.686;8.684;2023-08-08T13:31:28;99449.00;;;19.40
29423;BMP180;16399;51.686;8.684;2023-08-08T13:34:30;99456.00;;;19.50
29423;BMP180;16399;51.686;8.684;2023-08-08T13:37:32;99449.00;;;19.50
29423;BMP180;16399;51.686;8.684;2023-08-08T13:40:35;99444.00;;;19.60
29423;BMP180;16399;51.686;8.684;2023-08-08T13:43:37;99450.00;;;19.70
29423;BMP180;16399;51.686;8.684;2023-08-08T13:46:39;99450.00;;;19.70
29423;BMP180;16399;51.686;8.684;2023-08-08T13:49:41;99449.00;;;19.70
29423;BMP180;16399;51.686;8.684;2023-08-08T13:52:44;99464.00;;;19.60
29423;BMP180;16399;51.686;8.684;2023-08-08T13:55:46;99454.00;;;19.60
29423;BMP180;16399;51.686;8.684;2023-08-08T13:58:49;99442.00;;;19.60
29423;BMP180;16399;51.686;8.684;2023-08-08T14:01:51;99446.00;;;19.70
29423;BMP180;16399;51.686;8.684;2023-08-08T14:04:54;99447.00;;;19.70
29423;BMP180;16399;51.686;8.684;2023-08-08T14:07:56;99444.00;;;19.90
29423;BMP180;16399;51.686;8.684;2023-08-08T14:10:58;99441.00;;;20.00
29423;BMP180;16399;51.686;8.684;2023-08-08T14:14:00;99429.00;;;20.00
29423;BMP180;16399;51.686;8.684;2023-08-08T14:17:03;99446.00;;;20.00
29423;BMP180;16399;51.686;8.684;2023-08-08T14:20:06;99432.00;;;19.90
29423;BMP180;16399;51.686;8.684;2023-08-08T14:23:08;99442.00;;;19.90
29423;BMP180;16399;51.686;8.684;2023-08-08T14:26:11;99443.00;;;19.90
29423;BMP180;16399;51.686;8.684;2023-08-08T14:29:13;99449.00;;;20.00
29423;BMP180;16399;51.686;8.684;2023-08-08T14:32:15;99446.00;;;20.00
29423;BMP180;16399;51.686;8.684;2023-08-08T14:35:18;99442.00;;;20.10
29423;BMP180;16399;51.686;8.684;2023-08-08T14:38:26;99438.00;;;20.10
29423;BMP180;16399;51.686;8.684;2023-08-08T14:41:26;99438.00;;;20.10
29423;BMP180;16399;51.686;8.684;2023-08-08T14:44:28;99434.00;;;20.10
29423;BMP180;16399;51.686;8.684;2023-08-08T14:47:30;99439.00;;;20.20
29423;BMP180;16399;51.686;8.684;2023-08-08T14:50:33;99451.00;;;20.20
29423;BMP180;16399;51.686;8.684;2023-08-08T14:53:35;99460.00;;;20.10
29423;BMP180;16399;51.686;8.684;2023-08-08T14:56:37;99459.00;;;20.10
29423;BMP180;16399;51.686;8.684;2023-08-08T14:59:39;99461.00;;;20.20
29423;BMP180;16399;51.686;8.684;2023-08-08T15:02:42;99466.00;;;20.10
29423;BMP180;16399;51.686;8.684;2023-08-08T15:05:44;99462.00;;;19.90
29423;BMP180;16399;51.686;8.684;2023-08-08T15:08:48;99476.00;;;19.70
29423;BMP180;16399;51.686;8.684;2023-08-08T15:11:51;99491.00;;;19.60
29423;BMP180;16399;51.686;8.684;2023-08-08T15:14:53;99482.00;;;19.50
29423;BMP180;16399;51.686;8.684;2023-08-08T15:17:55;99485.00;;;19.60
29423;BMP180;16399;51.686;8.684;2023-08-08T15:20:58;99492.00;;;19.70
29423;BMP180;16399;51.686;8.684;2023-08-08T15:24:00;99486.00;;;19.70
29423;BMP180;16399;51.686;8.684;2023-08-08T15:27:03;99490.00;;;19.70
29423;BMP180;16399;51.686;8.684;2023-08-08T15:30:06;99497.00;;;19.60
29423;BMP180;16399;51.686;8.684;2023-08-08T15:33:08;99499.00;;;19.50
29423;BMP180;16399;51.686;8.684;2023-08-08T15:36:11;99512.00;;;19.50
29423;BMP180;16399;51.686;8.684;2023-08-08T15:39:13;99503.00;;;19.40
29423;BMP180;16399;51.686;8.684;2023-08-08T15:42:16;99490.00;;;19.30
29423;BMP180;16399;51.686;8.684;2023-08-08T15:45:19;99491.00;;;19.40
29423;BMP180;16399;51.686;8.684;2023-08-08T15:48:21;99481.00;;;19.50
29423;BMP180;16399;51.686;8.684;2023-08-08T15:51:23;99480.00;;;19.60
29423;BMP180;16399;51.686;8.684;2023-08-08T15:54:25;99478.00;;;19.70
29423;BMP180;16399;51.686;8.684;2023-08-08T15:57:28;99483.00;;;19.80
29423;BMP180;16399;51.686;8.684;2023-08-08T16:00:30;99479.00;;;19.90
29423;BMP180;16399;51.686;8.684;2023-08-08T16:03:33;99495.00;;;19.90
29423;BMP180;16399;51.686;8.684;2023-08-08T16:06:36;99498.00;;;20.00
29423;BMP180;16399;51.686;8.684;2023-08-08T16:09:39;99492.00;;;20.00
29423;BMP180;16399;51.686;8.684;2023-08-08T16:12:41;99483.00;;;20.00
29423;BMP180;16399;51.686;8.684;2023-08-08T16:15:43;99471.00;;;19.90
29423;BMP180;16399;51.686;8.684;2023-08-08T16:18:46;99479.00;;;19.80
29423;BMP180;16399;51.686;8.684;2023-08-08T16:21:48;99471.00;;;19.70
29423;BMP180;16399;51.686;8.684;2023-08-08T16:24:50;99483.00;;;19.60
29423;BMP180;16399;51.686;8.684;2023-08-08T16:27:53;99472.00;;;19.50
29423;BMP180;16399;51.686;8.684;2023-08-08T16:30:56;99476.00;;;19.30
29423;BMP180;16399;51.686;8.684;2023-08-08T16:33:58;99480.00;;;19.20
29423;BMP180;16399;51.686;8.684;2023-08-08T16:37:00;99476.00;;;19.10
29423;BMP180;16399;51.686;8.684;2023-08-08T16:40:03;99478.00;;;19.10
29423;BMP180;16399;51.686;8.684;2023-08-08T16:43:05;99483.00;;;19.10
29423;BMP180;16399;51.686;8.684;2023-08-08T16:46:08;99492.00;;;19.20
29423;BMP180;16399;51.686;8.684;2023-08-08T16:49:10;99496.00;;;19.10
29423;BMP180;16399;51.686;8.684;2023-08-08T16:52:13;99496.00;;;19.00
29423;BMP180;16399;51.686;8.684;2023-08-08T16:55:15;99498.00;;;18.90
29423;BMP180;16399;51.686;8.684;2023-08-08T16:58:17;99499.00;;;18.90
29423;BMP180;16399;51.686;8.684;2023-08-08T17:01:20;99507.00;;;18.80
29423;BMP180;16399;51.686;8.684;2023-08-08T17:04:22;99516.00;;;18.80
29423;BMP180;16399;51.686;8.684;2023-08-08T17:07:24;99505.00;;;18.70
29423;BMP180;16399;51.686;8.684;2023-08-08T17:10:27;99493.00;;;18.70
29423;BMP180;16399;51.686;8.684;2023-08-08T17:13:29;99501.00;;;18.70
29423;BMP180;16399;51.686;8.684;2023-08-08T17:16:32;99502.00;;;18.70
29423;BMP180;16399;51.686;8.684;2023-08-08T17:19:34;99502.00;;;18.70
29423;BMP180;16399;51.686;8.684;2023-08-08T17:22:36;99508.00;;;18.60
29423;BMP180;16399;51.686;8.684;2023-08-08T17:25:39;99503.00;;;18.60
29423;BMP180;16399;51.686;8.684;2023-08-08T17:28:41;99507.00;;;18.50
29423;BMP180;16399;51.686;8.684;2023-08-08T17:31:43;99511.00;;;18.50
29423;BMP180;16399;51.686;8.684;2023-08-08T17:34:46;99506.00;;;18.50